SC1A weather

Canchones West Airport
Canchones, Tarapac√° Region, Chile

Public forecast

Using degrees Celsius for public forecast. Weather courtesy of forecast.io.

METAR (pilot weather report)

Closest report is Diego Aracena Airport, 31.0 nm (57.5 km) WSW. Retrieved 2019/05/23 03:00 UTC (9 minutes ago):

SCDA 230300Z 26003KT 9999 OVC021 17/12 Q1016

TAF (pilot weather forecast)

Closest forecast is Diego Aracena Airport, 31.0 nm (57.5 km) WSW. Retrieved 2019/05/23 00:00 UTC (3 hours ago):

TAF SCDA 222233Z 2300/2400 24007KT 9999 BKN025 TN17/2310Z TX20/2319Z BECMG 2302/2304 21004KT OVC025 BECMG 2313/2315 23012KT SCT030 BECMG 2317/2319 CAVOK BECMG 2322/2400 20007KT SCT025